createdAt,value
2022-09-10T00:01:00.825Z,52.00
2022-09-10T00:03:27.375Z,51.82
2022-09-10T00:05:54.312Z,51.91
2022-09-10T00:08:21.816Z,51.85
2022-09-10T00:10:51.833Z,51.84
2022-09-10T00:13:21.975Z,51.76
2022-09-10T00:15:51.614Z,51.87
2022-09-10T00:18:20.731Z,51.70
2022-09-10T00:20:53.279Z,51.93
2022-09-10T00:23:23.712Z,51.93
2022-09-10T00:25:52.163Z,51.85
2022-09-10T00:28:19.021Z,51.78
2022-09-10T00:30:48.855Z,51.95
2022-09-10T00:33:16.951Z,51.83
2022-09-10T00:35:44.178Z,51.70
2022-09-10T00:38:11.527Z,51.66
2022-09-10T00:40:38.607Z,51.76
2022-09-10T00:43:14.476Z,51.83
2022-09-10T00:45:42.154Z,51.88
2022-09-10T00:48:16.812Z,51.74
2022-09-10T00:50:46.337Z,51.56
2022-09-10T00:53:18.320Z,51.64
2022-09-10T00:55:50.376Z,51.70
2022-09-10T00:58:19.579Z,51.73
2022-09-10T01:00:46.630Z,51.72
2022-09-10T01:03:15.907Z,51.64
2022-09-10T01:05:45.795Z,51.68
2022-09-10T01:08:14.472Z,51.47
2022-09-10T01:10:54.091Z,51.70
2022-09-10T01:13:29.038Z,51.84
2022-09-10T01:16:15.288Z,51.78
2022-09-10T01:18:59.208Z,51.82
2022-09-10T01:22:01.036Z,51.83
2022-09-10T01:24:52.629Z,51.90
2022-09-10T01:27:37.801Z,51.96
2022-09-10T01:30:17.950Z,51.47
2022-09-10T01:32:59.675Z,51.70
2022-09-10T01:35:51.199Z,51.65
2022-09-10T01:38:24.283Z,51.69
2022-09-10T01:40:54.160Z,51.70
2022-09-10T01:43:22.627Z,51.55
2022-09-10T01:45:51.909Z,51.67
2022-09-10T01:48:49.473Z,51.83
2022-09-10T01:51:28.171Z,51.60
2022-09-10T01:54:19.281Z,51.65
2022-09-10T01:57:04.575Z,51.39
2022-09-10T01:59:31.019Z,51.62
2022-09-10T02:02:29.584Z,51.74
2022-09-10T02:04:57.072Z,51.73
2022-09-10T02:07:26.721Z,51.65
2022-09-10T02:09:54.900Z,51.55
2022-09-10T02:12:22.953Z,51.59
2022-09-10T02:14:55.312Z,51.58
2022-09-10T02:17:25.315Z,51.59
2022-09-10T02:19:53.891Z,51.55
2022-09-10T02:22:23.867Z,51.55
2022-09-10T02:24:51.189Z,51.65
2022-09-10T02:27:17.904Z,51.64
2022-09-10T02:29:44.436Z,51.80
2022-09-10T02:32:10.904Z,51.50
2022-09-10T02:34:37.397Z,51.50
2022-09-10T02:37:04.253Z,51.47
2022-09-10T02:39:31.046Z,51.58
2022-09-10T02:42:01.941Z,51.33
2022-09-10T02:44:28.895Z,51.39
2022-09-10T02:46:55.664Z,51.53
2022-09-10T02:49:22.251Z,51.55
2022-09-10T02:51:50.564Z,51.48
2022-09-10T02:54:19.951Z,51.64
2022-09-10T02:56:49.945Z,51.57
2022-09-10T02:59:20.346Z,51.49
2022-09-10T03:01:48.402Z,51.64
2022-09-10T03:04:16.365Z,51.52
2022-09-10T03:06:43.513Z,51.87
2022-09-10T03:09:11.217Z,51.33
2022-09-10T03:11:40.743Z,51.39
2022-09-10T03:14:09.930Z,51.40
2022-09-10T03:16:36.621Z,51.22
2022-09-10T03:19:03.611Z,51.50
2022-09-10T03:21:30.521Z,51.44
2022-09-10T03:23:57.361Z,51.40
2022-09-10T03:26:27.206Z,51.51
2022-09-10T03:28:53.916Z,51.35
2022-09-10T03:31:21.793Z,51.56
2022-09-10T03:33:49.216Z,51.43
2022-09-10T03:36:15.677Z,51.48
2022-09-10T03:38:42.517Z,51.59
2022-09-10T03:41:09.508Z,51.39
2022-09-10T03:43:36.350Z,51.46
2022-09-10T03:46:03.702Z,51.34
2022-09-10T03:48:30.327Z,51.53
2022-09-10T03:50:57.210Z,51.21
2022-09-10T03:53:24.051Z,51.43
2022-09-10T03:55:51.906Z,51.46
2022-09-10T03:58:18.908Z,51.42
2022-09-10T04:00:46.631Z,51.47
2022-09-10T04:03:14.581Z,51.49
2022-09-10T04:05:45.283Z,51.44
2022-09-10T04:08:13.696Z,51.34
2022-09-10T04:10:40.785Z,51.38
2022-09-10T04:13:07.617Z,51.36
2022-09-10T04:15:34.242Z,51.53
2022-09-10T04:18:00.970Z,51.32
2022-09-10T04:20:27.471Z,51.24
2022-09-10T04:22:55.115Z,51.20
2022-09-10T04:25:21.675Z,51.27
2022-09-10T04:27:49.737Z,51.10
2022-09-10T04:30:17.395Z,51.27
2022-09-10T04:32:45.135Z,51.21
2022-09-10T04:35:15.346Z,51.46
2022-09-10T04:37:43.195Z,51.35
2022-09-10T04:40:11.016Z,51.24
2022-09-10T04:42:38.200Z,51.32
2022-09-10T04:45:06.078Z,51.29
2022-09-10T04:47:34.032Z,51.24
2022-09-10T04:50:00.817Z,51.22
2022-09-10T04:52:27.970Z,51.04
2022-09-10T04:54:54.550Z,51.37
2022-09-10T04:57:21.264Z,51.18
2022-09-10T04:59:47.768Z,51.16
2022-09-10T05:02:14.545Z,51.12
2022-09-10T05:04:41.126Z,51.12
2022-09-10T05:07:07.638Z,51.26
2022-09-10T05:09:34.209Z,51.30
2022-09-10T05:12:03.858Z,51.17
2022-09-10T05:14:30.647Z,51.29
2022-09-10T05:16:57.345Z,51.20
2022-09-10T05:19:23.820Z,51.29
2022-09-10T05:21:50.346Z,51.21
2022-09-10T05:24:17.274Z,51.37
2022-09-10T05:26:44.289Z,51.35
2022-09-10T05:29:14.171Z,51.33
2022-09-10T05:31:41.091Z,51.20
2022-09-10T05:34:08.814Z,51.22
2022-09-10T05:36:35.575Z,51.48
2022-09-10T05:39:05.665Z,51.19
2022-09-10T05:41:32.738Z,51.28
2022-09-10T05:44:00.231Z,51.24
2022-09-10T05:46:26.763Z,51.15
2022-09-10T05:48:54.283Z,51.13
2022-09-10T05:51:21.828Z,51.16
2022-09-10T05:53:48.559Z,51.22
2022-09-10T05:56:15.051Z,51.29
2022-09-10T05:58:41.549Z,51.05
2022-09-10T06:01:08.058Z,52.08
2022-09-10T06:03:34.696Z,53.98
2022-09-10T06:06:01.219Z,54.83
2022-09-10T06:08:27.746Z,54.99
2022-09-10T06:11:02.674Z,54.95
2022-09-10T06:13:29.185Z,55.27
2022-09-10T06:15:55.730Z,55.64
2022-09-10T06:18:22.266Z,55.49
2022-09-10T06:20:49.094Z,55.67
2022-09-10T06:23:16.705Z,55.49
2022-09-10T06:25:44.556Z,55.78
2022-09-10T06:28:12.643Z,55.75
2022-09-10T06:30:39.551Z,55.60
2022-09-10T06:33:06.073Z,55.94
2022-09-10T06:35:33.309Z,55.94
2022-09-10T06:37:59.791Z,55.91
2022-09-10T06:40:29.695Z,55.82
2022-09-10T06:42:56.250Z,55.75
2022-09-10T06:45:22.737Z,56.02
2022-09-10T06:48:51.631Z,56.04
2022-09-10T06:50:36.953Z,55.85
2022-09-10T06:53:03.537Z,56.00
2022-09-10T06:55:30.129Z,55.90
2022-09-10T06:57:59.656Z,56.21
2022-09-10T07:00:26.172Z,55.92
2022-09-10T07:02:52.966Z,55.91
2022-09-10T07:05:19.419Z,56.00
2022-09-10T07:07:46.384Z,55.94
2022-09-10T07:10:12.856Z,55.98
2022-09-10T07:12:39.338Z,55.78
2022-09-10T07:15:06.239Z,55.77
2022-09-10T07:17:35.896Z,55.57
2022-09-10T07:20:02.800Z,55.65
2022-09-10T07:22:29.307Z,55.45
2022-09-10T07:24:56.102Z,55.37
2022-09-10T07:27:22.810Z,55.45
2022-09-10T07:29:49.617Z,55.60
2022-09-10T07:32:16.203Z,54.55
2022-09-10T07:34:43.130Z,53.86
2022-09-10T07:37:09.909Z,54.18
2022-09-10T07:39:36.474Z,53.87
2022-09-10T07:42:03.026Z,52.96
2022-09-10T07:44:29.526Z,52.68
2022-09-10T07:46:56.021Z,52.45
2022-09-10T07:49:22.500Z,52.35
2022-09-10T07:51:49.303Z,54.02
2022-09-10T07:54:17.218Z,53.71
2022-09-10T07:56:44.191Z,52.51
2022-09-10T07:59:11.611Z,51.75
2022-09-10T08:01:38.129Z,51.46
2022-09-10T08:04:05.463Z,51.04
2022-09-10T08:06:32.280Z,50.73
2022-09-10T08:09:00.039Z,49.64
2022-09-10T08:11:26.576Z,49.49
2022-09-10T08:13:54.323Z,49.25
2022-09-10T08:16:26.870Z,49.12
2022-09-10T08:18:58.428Z,48.84
2022-09-10T08:21:25.782Z,49.40
2022-09-10T08:23:56.093Z,49.40
2022-09-10T08:26:24.426Z,49.50
2022-09-10T08:28:56.173Z,48.65
2022-09-10T08:31:23.048Z,47.86
2022-09-10T08:33:51.292Z,48.57
2022-09-10T08:36:18.911Z,49.53
2022-09-10T08:38:46.085Z,52.61
2022-09-10T08:41:38.335Z,51.22
2022-09-10T08:44:11.686Z,51.54
2022-09-10T08:46:55.552Z,51.25
2022-09-10T08:49:44.029Z,51.70
2022-09-10T08:52:22.698Z,52.85
2022-09-10T08:55:18.840Z,50.22
2022-09-10T08:58:06.924Z,50.21
2022-09-10T09:00:38.086Z,49.54
2022-09-10T09:03:24.959Z,49.80
2022-09-10T09:05:56.071Z,50.09
2022-09-10T09:08:25.585Z,50.49
2022-09-10T09:10:59.367Z,50.67
2022-09-10T09:13:53.546Z,51.25
2022-09-10T09:16:30.382Z,51.43
2022-09-10T09:19:30.632Z,51.74
2022-09-10T09:22:07.961Z,51.55
2022-09-10T09:24:40.567Z,51.70
2022-09-10T09:27:16.803Z,52.13
2022-09-10T09:29:59.397Z,51.45
2022-09-10T09:32:28.748Z,51.48
2022-09-10T09:35:01.176Z,51.25
2022-09-10T09:37:30.432Z,51.60
2022-09-10T09:40:15.603Z,51.46
2022-09-10T09:42:59.300Z,51.48
2022-09-10T09:45:43.321Z,52.29
2022-09-10T09:48:13.595Z,52.74
2022-09-10T09:50:43.315Z,52.27
2022-09-10T09:53:17.522Z,52.20
2022-09-10T09:55:48.140Z,52.27
2022-09-10T09:58:26.795Z,52.17
2022-09-10T10:01:05.830Z,52.20
2022-09-10T10:03:35.469Z,51.96
2022-09-10T10:06:03.510Z,52.92
2022-09-10T10:08:34.270Z,51.99
2022-09-10T10:11:01.463Z,51.90
2022-09-10T10:13:45.475Z,52.03
2022-09-10T10:16:23.028Z,51.96
2022-09-10T10:18:50.502Z,52.00
2022-09-10T10:21:36.892Z,52.19
2022-09-10T10:24:04.099Z,52.03
2022-09-10T10:26:32.565Z,51.98
2022-09-10T10:29:19.608Z,51.86
2022-09-10T10:31:49.811Z,51.57
2022-09-10T10:35:02.795Z,51.50
2022-09-10T10:38:01.759Z,51.87
2022-09-10T10:40:34.603Z,51.50
2022-09-10T10:43:04.203Z,51.87
2022-09-10T10:45:40.723Z,52.09
2022-09-10T10:48:16.364Z,52.40
2022-09-10T10:50:58.179Z,52.84
2022-09-10T10:53:41.748Z,53.41
2022-09-10T10:56:17.394Z,52.87
2022-09-10T10:59:23.566Z,52.92
2022-09-10T11:01:57.942Z,53.07
2022-09-10T11:04:35.607Z,53.71
2022-09-10T11:07:20.110Z,53.70
2022-09-10T11:10:02.379Z,53.55
2022-09-10T11:12:33.953Z,53.47
2022-09-10T11:15:19.915Z,53.80
2022-09-10T11:17:53.831Z,53.67
2022-09-10T11:20:32.863Z,53.46
2022-09-10T11:23:08.330Z,53.30
2022-09-10T11:25:44.913Z,54.50
2022-09-10T11:28:20.082Z,53.77
2022-09-10T11:30:52.383Z,53.85
2022-09-10T11:33:28.629Z,53.94
2022-09-10T11:36:12.182Z,52.52
2022-09-10T11:39:09.108Z,51.83
2022-09-10T11:41:42.188Z,53.20
2022-09-10T11:44:26.647Z,53.57
2022-09-10T11:47:15.947Z,54.21
2022-09-10T11:49:48.288Z,54.33
2022-09-10T11:52:15.804Z,54.74
2022-09-10T11:54:46.593Z,54.54
2022-09-10T11:57:26.919Z,54.40
2022-09-10T12:00:12.794Z,54.34
2022-09-10T12:02:39.374Z,54.75
2022-09-10T12:05:14.841Z,54.66
2022-09-10T12:07:56.948Z,54.26
2022-09-10T12:10:53.228Z,54.25
2022-09-10T12:13:19.852Z,54.43
2022-09-10T12:16:02.453Z,54.42
2022-09-10T12:18:42.661Z,54.27
2022-09-10T12:21:19.844Z,54.34
2022-09-10T12:23:46.427Z,54.18
2022-09-10T12:26:19.755Z,54.49
2022-09-10T12:28:49.374Z,54.37
2022-09-10T12:31:18.113Z,54.21
2022-09-10T12:33:44.595Z,54.17
2022-09-10T12:36:34.557Z,54.69
2022-09-10T12:39:21.147Z,54.19
2022-09-10T12:41:47.570Z,54.29
2022-09-10T12:44:36.005Z,54.23
2022-09-10T12:47:17.323Z,54.06
2022-09-10T12:49:48.060Z,54.18
2022-09-10T12:52:35.351Z,54.37
2022-09-10T12:55:31.929Z,53.96
2022-09-10T12:58:24.108Z,53.59
2022-09-10T13:00:58.127Z,53.95
2022-09-10T13:03:27.934Z,53.81
2022-09-10T13:05:57.574Z,53.02
2022-09-10T13:08:49.964Z,53.10
2022-09-10T13:11:22.367Z,53.24
2022-09-10T13:13:59.405Z,53.04
2022-09-10T13:16:26.473Z,51.14
2022-09-10T13:18:57.080Z,52.31
2022-09-10T13:21:23.658Z,52.64
2022-09-10T13:23:51.292Z,52.86
2022-09-10T13:26:34.119Z,53.03
2022-09-10T13:29:08.613Z,52.79
2022-09-10T13:31:38.699Z,52.51
2022-09-10T13:34:14.258Z,52.69
2022-09-10T13:36:59.876Z,52.57
2022-09-10T13:39:32.303Z,52.60
2022-09-10T13:42:36.027Z,52.91
2022-09-10T13:45:21.790Z,52.28
2022-09-10T13:48:01.772Z,51.68
2022-09-10T13:50:57.929Z,52.05
2022-09-10T13:53:27.976Z,51.89
2022-09-10T13:56:14.003Z,51.94
2022-09-10T13:58:48.469Z,52.04
2022-09-10T14:01:15.103Z,51.84
2022-09-10T14:03:42.092Z,52.26
2022-09-10T14:06:15.374Z,52.40
2022-09-10T14:08:57.257Z,52.16
2022-09-10T14:11:28.064Z,52.11
2022-09-10T14:13:57.819Z,52.06
2022-09-10T14:16:30.094Z,52.13
2022-09-10T14:18:59.649Z,52.25
2022-09-10T14:21:29.419Z,52.61
2022-09-10T14:23:59.004Z,52.33
2022-09-10T14:26:33.558Z,52.29
2022-09-10T14:29:03.989Z,52.05
2022-09-10T14:31:34.321Z,52.10
2022-09-10T14:34:26.008Z,52.38
2022-09-10T14:36:52.767Z,52.23
2022-09-10T14:39:21.325Z,52.20
2022-09-10T14:41:48.821Z,52.08
2022-09-10T14:44:20.426Z,52.10
2022-09-10T14:46:49.569Z,51.66
2022-09-10T14:49:17.974Z,52.58
2022-09-10T14:51:45.079Z,52.39
2022-09-10T14:54:12.890Z,52.04
2022-09-10T14:56:42.646Z,51.85
2022-09-10T14:59:33.416Z,52.15
2022-09-10T15:02:01.039Z,51.77
2022-09-10T15:04:30.116Z,52.02
2022-09-10T15:06:58.763Z,51.96
2022-09-10T15:09:27.182Z,51.97
2022-09-10T15:12:05.838Z,52.10
2022-09-10T15:14:33.556Z,51.81
2022-09-10T15:17:00.468Z,51.95
2022-09-10T15:19:27.887Z,52.05
2022-09-10T15:21:54.875Z,52.02
2022-09-10T15:24:22.929Z,51.91
2022-09-10T15:26:49.809Z,51.89
2022-09-10T15:29:17.922Z,51.41
2022-09-10T15:31:44.691Z,51.35
2022-09-10T15:34:11.955Z,51.64
2022-09-10T15:36:39.921Z,51.38
2022-09-10T15:39:08.032Z,51.09
2022-09-10T15:41:34.549Z,51.09
2022-09-10T15:44:02.943Z,51.31
2022-09-10T15:46:29.774Z,51.24
2022-09-10T15:48:58.725Z,51.35
2022-09-10T15:51:25.643Z,51.11
2022-09-10T15:53:53.886Z,51.44
2022-09-10T15:56:22.467Z,51.89
2022-09-10T15:58:59.267Z,51.76
2022-09-10T16:01:28.833Z,52.13
2022-09-10T16:03:58.311Z,52.32
2022-09-10T16:06:27.725Z,52.27
2022-09-10T16:09:01.238Z,52.07
2022-09-10T16:11:32.411Z,53.82
2022-09-10T16:14:04.335Z,54.74
2022-09-10T16:16:32.054Z,49.64
2022-09-10T16:18:58.587Z,50.46
2022-09-10T16:21:31.095Z,52.74
2022-09-10T16:23:59.403Z,52.87
2022-09-10T16:26:35.848Z,53.50
2022-09-10T16:29:06.431Z,53.98
2022-09-10T16:31:35.503Z,54.79
2022-09-10T16:34:04.645Z,55.08
2022-09-10T16:36:36.929Z,55.12
2022-09-10T16:39:07.288Z,55.27
2022-09-10T16:41:33.859Z,55.52
2022-09-10T16:44:00.622Z,54.50
2022-09-10T16:46:28.113Z,54.98
2022-09-10T16:48:56.490Z,55.44
2022-09-10T16:51:25.291Z,56.07
2022-09-10T16:53:57.663Z,56.35
2022-09-10T16:56:25.441Z,56.43
2022-09-10T16:58:52.066Z,56.94
2022-09-10T17:01:20.726Z,55.31
2022-09-10T17:03:52.107Z,55.71
2022-09-10T17:06:21.497Z,55.41
2022-09-10T17:08:48.351Z,56.22
2022-09-10T17:11:16.688Z,56.50
2022-09-10T17:13:43.522Z,56.41
2022-09-10T17:16:25.290Z,55.50
2022-09-10T17:19:11.383Z,55.54
2022-09-10T17:21:39.860Z,55.61
2022-09-10T17:24:08.863Z,57.31
2022-09-10T17:26:37.176Z,57.06
2022-09-10T17:29:10.322Z,57.46
2022-09-10T17:31:36.934Z,56.73
2022-09-10T17:34:04.491Z,57.74
2022-09-10T17:36:31.961Z,57.53
2022-09-10T17:38:59.655Z,57.83
2022-09-10T17:41:29.633Z,57.58
2022-09-10T17:43:58.471Z,57.59
2022-09-10T17:46:25.855Z,57.75
2022-09-10T17:48:53.636Z,57.77
2022-09-10T17:51:22.877Z,57.34
2022-09-10T17:53:49.871Z,56.08
2022-09-10T17:56:18.973Z,54.61
2022-09-10T17:58:47.972Z,54.20
2022-09-10T18:01:23.469Z,53.66
2022-09-10T18:03:51.316Z,53.25
2022-09-10T18:06:18.123Z,53.06
2022-09-10T18:08:44.773Z,53.43
2022-09-10T18:11:17.545Z,53.24
2022-09-10T18:13:44.787Z,52.87
2022-09-10T18:16:14.956Z,53.70
2022-09-10T18:18:41.776Z,54.13
2022-09-10T18:21:12.108Z,54.01
2022-09-10T18:23:39.125Z,54.54
2022-09-10T18:26:11.924Z,54.55
2022-09-10T18:28:38.744Z,54.18
2022-09-10T18:31:06.639Z,53.88
2022-09-10T18:33:38.453Z,54.36
2022-09-10T18:36:15.736Z,53.99
2022-09-10T18:38:43.294Z,53.84
2022-09-10T18:41:27.603Z,53.83
2022-09-10T18:43:58.405Z,53.80
2022-09-10T18:46:26.239Z,53.57
2022-09-10T18:48:53.362Z,53.62
2022-09-10T18:51:22.831Z,53.55
2022-09-10T18:53:53.267Z,53.72
2022-09-10T18:56:23.341Z,53.52
2022-09-10T18:58:51.634Z,53.53
2022-09-10T19:01:18.686Z,53.37
2022-09-10T19:03:47.576Z,53.49
2022-09-10T19:06:25.243Z,53.55
2022-09-10T19:08:54.233Z,53.38
2022-09-10T19:11:24.408Z,53.44
2022-09-10T19:13:53.491Z,53.45
2022-09-10T19:16:24.184Z,53.31
2022-09-10T19:18:52.495Z,53.42
2022-09-10T19:21:20.396Z,53.28
2022-09-10T19:23:48.357Z,53.38
2022-09-10T19:26:15.854Z,53.29
2022-09-10T19:28:43.315Z,53.06
2022-09-10T19:31:12.889Z,53.30
2022-09-10T19:33:39.594Z,53.01
2022-09-10T19:36:14.656Z,53.01
2022-09-10T19:38:41.551Z,52.98
2022-09-10T19:41:12.242Z,52.91
2022-09-10T19:43:40.330Z,52.60
2022-09-10T19:46:12.830Z,52.54
2022-09-10T19:48:40.283Z,52.74
2022-09-10T19:51:10.489Z,52.84
2022-09-10T19:53:37.835Z,52.73
2022-09-10T19:56:08.196Z,52.93
2022-09-10T19:58:36.271Z,52.73
2022-09-10T20:01:15.623Z,52.79
2022-09-10T20:03:45.295Z,52.67
2022-09-10T20:06:14.487Z,52.52
2022-09-10T20:08:42.017Z,52.48
2022-09-10T20:11:15.391Z,52.12
2022-09-10T20:13:42.237Z,52.05
2022-09-10T20:16:09.808Z,52.43
2022-09-10T20:18:36.754Z,52.30
2022-09-10T20:21:33.264Z,52.38
2022-09-10T20:23:59.868Z,52.20
2022-09-10T20:26:31.706Z,51.83
2022-09-10T20:29:00.695Z,51.98
2022-09-10T20:31:29.130Z,52.32
2022-09-10T20:33:57.775Z,52.26
2022-09-10T20:36:25.346Z,52.21
2022-09-10T20:38:53.423Z,52.28
2022-09-10T20:41:20.495Z,52.50
2022-09-10T20:43:55.538Z,52.40
2022-09-10T20:46:22.783Z,52.35
2022-09-10T20:48:51.024Z,52.43
2022-09-10T20:51:19.266Z,52.41
2022-09-10T20:53:46.020Z,52.48
2022-09-10T20:56:15.503Z,52.43
2022-09-10T20:58:42.185Z,52.45
2022-09-10T21:01:14.346Z,52.52
2022-09-10T21:03:41.483Z,52.39
2022-09-10T21:06:10.696Z,52.54
2022-09-10T21:08:38.545Z,52.36
2022-09-10T21:11:06.943Z,52.28
2022-09-10T21:13:34.142Z,52.43
2022-09-10T21:16:10.498Z,52.35
2022-09-10T21:18:38.006Z,52.44
2022-09-10T21:21:09.723Z,52.35
2022-09-10T21:23:44.397Z,52.35
2022-09-10T21:26:12.479Z,52.42
2022-09-10T21:28:39.844Z,52.14
2022-09-10T21:31:09.034Z,52.03
2022-09-10T21:33:36.741Z,52.00
2022-09-10T21:36:08.347Z,52.17
2022-09-10T21:38:37.984Z,52.12
2022-09-10T21:41:06.828Z,52.13
2022-09-10T21:43:35.055Z,52.03
2022-09-10T21:46:03.156Z,51.99
2022-09-10T21:48:30.553Z,52.02
2022-09-10T21:51:00.309Z,51.82
2022-09-10T21:53:27.847Z,51.33
2022-09-10T21:55:55.931Z,51.82
2022-09-10T21:58:23.655Z,51.29
2022-09-10T22:00:50.357Z,51.38
2022-09-10T22:03:17.075Z,51.32
2022-09-10T22:05:43.619Z,51.28
2022-09-10T22:08:10.165Z,51.38
2022-09-10T22:10:41.292Z,51.16
2022-09-10T22:13:11.709Z,51.27
2022-09-10T22:15:40.096Z,50.99
2022-09-10T22:18:08.246Z,51.07
2022-09-10T22:20:36.221Z,51.13
2022-09-10T22:23:04.128Z,51.11
2022-09-10T22:25:31.312Z,51.21
2022-09-10T22:27:58.325Z,51.92
2022-09-10T22:30:27.860Z,51.54
2022-09-10T22:32:58.246Z,51.96
2022-09-10T22:35:27.981Z,52.08
2022-09-10T22:37:56.227Z,51.90
2022-09-10T22:40:26.098Z,52.13
2022-09-10T22:42:52.750Z,52.34
2022-09-10T22:45:20.729Z,52.21
2022-09-10T22:47:48.387Z,52.33
2022-09-10T22:50:15.467Z,52.09
2022-09-10T22:52:43.700Z,52.18
2022-09-10T22:55:10.511Z,52.30
2022-09-10T22:57:38.587Z,52.11
2022-09-10T23:00:06.941Z,52.26
2022-09-10T23:02:33.691Z,52.32
2022-09-10T23:05:01.231Z,52.22
2022-09-10T23:07:27.730Z,52.17
2022-09-10T23:09:54.301Z,52.23
2022-09-10T23:12:22.072Z,52.46
2022-09-10T23:14:48.653Z,52.17
2022-09-10T23:17:18.431Z,52.29
2022-09-10T23:19:47.147Z,52.43
2022-09-10T23:22:14.020Z,52.33
2022-09-10T23:24:40.560Z,52.15
2022-09-10T23:27:07.094Z,52.39
2022-09-10T23:29:33.602Z,52.30
2022-09-10T23:32:00.068Z,52.30
2022-09-10T23:34:26.611Z,52.32
2022-09-10T23:36:53.892Z,52.36
2022-09-10T23:39:22.919Z,52.28
2022-09-10T23:41:52.102Z,52.41
2022-09-10T23:44:18.626Z,52.70
2022-09-10T23:46:45.164Z,52.44
2022-09-10T23:49:12.209Z,52.38
2022-09-10T23:51:39.062Z,52.18
2022-09-10T23:54:05.668Z,52.24
2022-09-10T23:56:32.657Z,52.36
2022-09-10T23:59:03.553Z,52.19
